Neillsville, Wisconsin
Current Conditions -  °F | °C
As of 8:31 AM on Thursday 27 Nov 2014 (Local Time) from KMFI Reporting Station
Haze Haze  
Wind Chill: -21°   Ceiling: 1900
Heat Index: -14°   Visibility: 5mi
Dew Point: -17°   Wind: 9mph
Humidity: 77%   Direction: 310°NW
Pressure: 30.35"   Gusts: NA
Location:  44.56°N, 90.6°W
Report Text: KMFI 271431Z AUTO 31008KT 5SM HZ BKN019 OVC041 M14/M17 A3035 RMK AO2 T11391172
Loading
Personal Weather Stations






























Interactive Weather Map New forecast layout! Learn more

10-Day Weather Forecast

Advertisements
Track Severe Weather on mobile